sensor_id;sensor_type;location;lat;lon;timestamp;temperature;humidity
54178;DHT22;40085;53.004;6.770;2022-08-06T00:00:31;12.90;99.90
54178;DHT22;40085;53.004;6.770;2022-08-06T00:02:58;12.90;99.90
54178;DHT22;40085;53.004;6.770;2022-08-06T00:05:23;12.90;99.90
54178;DHT22;40085;53.004;6.770;2022-08-06T00:07:51;12.80;99.90
54178;DHT22;40085;53.004;6.770;2022-08-06T00:10:18;13.20;99.90
54178;DHT22;40085;53.004;6.770;2022-08-06T00:12:44;12.80;99.90
54178;DHT22;40085;53.004;6.770;2022-08-06T00:15:10;12.70;99.90
54178;DHT22;40085;53.004;6.770;2022-08-06T00:17:36;12.70;99.90
54178;DHT22;40085;53.004;6.770;2022-08-06T00:20:05;12.70;99.90
54178;DHT22;40085;53.004;6.770;2022-08-06T00:22:30;12.60;99.90
54178;DHT22;40085;53.004;6.770;2022-08-06T00:24:57;12.70;99.90
54178;DHT22;40085;53.004;6.770;2022-08-06T00:27:23;12.50;99.90
54178;DHT22;40085;53.004;6.770;2022-08-06T00:29:48;13.50;99.90
54178;DHT22;40085;53.004;6.770;2022-08-06T00:32:15;12.60;99.90
54178;DHT22;40085;53.004;6.770;2022-08-06T00:34:41;12.40;99.90
54178;DHT22;40085;53.004;6.770;2022-08-06T00:37:07;12.50;99.90
54178;DHT22;40085;53.004;6.770;2022-08-06T00:39:32;12.50;99.90
54178;DHT22;40085;53.004;6.770;2022-08-06T00:41:58;12.50;99.90
54178;DHT22;40085;53.004;6.770;2022-08-06T00:44:24;12.80;99.90
54178;DHT22;40085;53.004;6.770;2022-08-06T00:46:50;12.40;99.90
54178;DHT22;40085;53.004;6.770;2022-08-06T00:49:17;13.20;99.90
54178;DHT22;40085;53.004;6.770;2022-08-06T00:51:43;13.00;99.90
54178;DHT22;40085;53.004;6.770;2022-08-06T00:54:09;12.40;99.90
54178;DHT22;40085;53.004;6.770;2022-08-06T00:56:34;12.30;99.90
54178;DHT22;40085;53.004;6.770;2022-08-06T00:59:00;12.30;99.90
54178;DHT22;40085;53.004;6.770;2022-08-06T01:01:26;12.30;99.90
54178;DHT22;40085;53.004;6.770;2022-08-06T01:03:51;12.20;99.90
54178;DHT22;40085;53.004;6.770;2022-08-06T01:06:18;12.30;99.90
54178;DHT22;40085;53.004;6.770;2022-08-06T01:08:43;12.30;99.90
54178;DHT22;40085;53.004;6.770;2022-08-06T01:11:09;12.40;99.90
54178;DHT22;40085;53.004;6.770;2022-08-06T01:13:35;12.30;99.90
54178;DHT22;40085;53.004;6.770;2022-08-06T01:16:21;12.20;99.90
54178;DHT22;40085;53.004;6.770;2022-08-06T01:25:23;12.20;99.90
54178;DHT22;40085;53.004;6.770;2022-08-06T01:28:05;9.90;99.90
54178;DHT22;40085;53.004;6.770;2022-08-06T01:30:37;12.10;99.90
54178;DHT22;40085;53.004;6.770;2022-08-06T01:33:04;12.70;99.90
54178;DHT22;40085;53.004;6.770;2022-08-06T01:35:36;11.10;99.90
54178;DHT22;40085;53.004;6.770;2022-08-06T01:38:10;12.10;99.90
54178;DHT22;40085;53.004;6.770;2022-08-06T01:40:39;12.00;99.90
54178;DHT22;40085;53.004;6.770;2022-08-06T01:43:08;12.20;99.90
54178;DHT22;40085;53.004;6.770;2022-08-06T01:45:35;12.00;99.90
54178;DHT22;40085;53.004;6.770;2022-08-06T01:48:06;12.00;99.90
54178;DHT22;40085;53.004;6.770;2022-08-06T01:50:38;11.90;99.90
54178;DHT22;40085;53.004;6.770;2022-08-06T01:53:07;12.00;99.90
54178;DHT22;40085;53.004;6.770;2022-08-06T01:55:39;12.40;99.90
54178;DHT22;40085;53.004;6.770;2022-08-06T01:58:06;11.90;99.90
54178;DHT22;40085;53.004;6.770;2022-08-06T02:00:38;11.20;99.90
54178;DHT22;40085;53.004;6.770;2022-08-06T02:03:26;11.90;99.90
54178;DHT22;40085;53.004;6.770;2022-08-06T02:05:55;11.90;99.90
54178;DHT22;40085;53.004;6.770;2022-08-06T02:08:24;12.20;99.90
54178;DHT22;40085;53.004;6.770;2022-08-06T02:10:52;12.20;99.90
54178;DHT22;40085;53.004;6.770;2022-08-06T02:13:21;12.00;99.90
54178;DHT22;40085;53.004;6.770;2022-08-06T02:15:49;11.90;99.90
54178;DHT22;40085;53.004;6.770;2022-08-06T02:18:18;12.70;99.90
54178;DHT22;40085;53.004;6.770;2022-08-06T02:20:48;11.90;99.90
54178;DHT22;40085;53.004;6.770;2022-08-06T02:23:20;11.90;99.90
54178;DHT22;40085;53.004;6.770;2022-08-06T02:25:48;10.80;99.90
54178;DHT22;40085;53.004;6.770;2022-08-06T02:28:16;12.40;99.90
54178;DHT22;40085;53.004;6.770;2022-08-06T02:30:45;11.90;99.90
54178;DHT22;40085;53.004;6.770;2022-08-06T02:33:12;11.90;99.90
54178;DHT22;40085;53.004;6.770;2022-08-06T02:35:56;12.30;99.90
54178;DHT22;40085;53.004;6.770;2022-08-06T02:38:31;11.90;99.90
54178;DHT22;40085;53.004;6.770;2022-08-06T02:41:19;12.50;99.90
54178;DHT22;40085;53.004;6.770;2022-08-06T02:43:51;11.90;99.90
54178;DHT22;40085;53.004;6.770;2022-08-06T02:46:23;12.10;99.90
54178;DHT22;40085;53.004;6.770;2022-08-06T02:48:59;11.80;99.90
54178;DHT22;40085;53.004;6.770;2022-08-06T02:51:38;12.40;99.90
54178;DHT22;40085;53.004;6.770;2022-08-06T02:54:17;11.80;99.90
54178;DHT22;40085;53.004;6.770;2022-08-06T02:56:46;11.80;99.90
54178;DHT22;40085;53.004;6.770;2022-08-06T02:59:20;11.70;99.90
54178;DHT22;40085;53.004;6.770;2022-08-06T03:01:54;12.20;99.90
54178;DHT22;40085;53.004;6.770;2022-08-06T03:04:23;12.00;99.90
54178;DHT22;40085;53.004;6.770;2022-08-06T03:06:51;11.60;99.90
54178;DHT22;40085;53.004;6.770;2022-08-06T03:09:19;11.60;99.90
54178;DHT22;40085;53.004;6.770;2022-08-06T03:11:46;11.60;99.90
54178;DHT22;40085;53.004;6.770;2022-08-06T03:14:15;12.00;99.90
54178;DHT22;40085;53.004;6.770;2022-08-06T03:16:42;11.60;99.90
54178;DHT22;40085;53.004;6.770;2022-08-06T03:19:08;11.80;99.90
54178;DHT22;40085;53.004;6.770;2022-08-06T03:21:38;13.80;99.90
54178;DHT22;40085;53.004;6.770;2022-08-06T03:24:06;11.60;99.90
54178;DHT22;40085;53.004;6.770;2022-08-06T03:26:36;11.60;99.90
54178;DHT22;40085;53.004;6.770;2022-08-06T03:29:03;12.60;99.90
54178;DHT22;40085;53.004;6.770;2022-08-06T03:31:30;11.50;99.90
54178;DHT22;40085;53.004;6.770;2022-08-06T03:33:57;11.50;99.90
54178;DHT22;40085;53.004;6.770;2022-08-06T03:36:25;13.30;99.90
54178;DHT22;40085;53.004;6.770;2022-08-06T03:38:58;11.60;99.90
54178;DHT22;40085;53.004;6.770;2022-08-06T03:41:26;14.20;99.90
54178;DHT22;40085;53.004;6.770;2022-08-06T03:43:53;11.50;99.90
54178;DHT22;40085;53.004;6.770;2022-08-06T03:46:41;11.50;99.90
54178;DHT22;40085;53.004;6.770;2022-08-06T03:49:28;11.50;99.90
54178;DHT22;40085;53.004;6.770;2022-08-06T03:51:56;10.30;99.90
54178;DHT22;40085;53.004;6.770;2022-08-06T03:54:29;11.40;99.90
54178;DHT22;40085;53.004;6.770;2022-08-06T03:57:08;12.90;99.90
54178;DHT22;40085;53.004;6.770;2022-08-06T03:59:41;10.70;99.90
54178;DHT22;40085;53.004;6.770;2022-08-06T04:02:08;11.30;99.90
54178;DHT22;40085;53.004;6.770;2022-08-06T04:04:38;11.30;99.90
54178;DHT22;40085;53.004;6.770;2022-08-06T04:07:04;11.30;99.90
54178;DHT22;40085;53.004;6.770;2022-08-06T04:09:32;9.00;99.90
54178;DHT22;40085;53.004;6.770;2022-08-06T04:11:59;11.30;99.90
54178;DHT22;40085;53.004;6.770;2022-08-06T04:14:25;11.30;99.90
54178;DHT22;40085;53.004;6.770;2022-08-06T04:16:52;11.20;99.90
54178;DHT22;40085;53.004;6.770;2022-08-06T04:19:19;11.60;99.90
54178;DHT22;40085;53.004;6.770;2022-08-06T04:21:46;11.40;99.90
54178;DHT22;40085;53.004;6.770;2022-08-06T04:24:13;11.60;99.90
54178;DHT22;40085;53.004;6.770;2022-08-06T04:26:40;10.10;99.90
54178;DHT22;40085;53.004;6.770;2022-08-06T04:29:12;11.80;99.90
54178;DHT22;40085;53.004;6.770;2022-08-06T04:31:39;11.30;99.90
54178;DHT22;40085;53.004;6.770;2022-08-06T04:34:08;11.30;99.90
54178;DHT22;40085;53.004;6.770;2022-08-06T04:36:35;11.30;99.90
54178;DHT22;40085;53.004;6.770;2022-08-06T04:39:01;11.50;99.90
54178;DHT22;40085;53.004;6.770;2022-08-06T04:41:26;11.40;99.90
54178;DHT22;40085;53.004;6.770;2022-08-06T04:43:52;12.90;99.90
54178;DHT22;40085;53.004;6.770;2022-08-06T04:46:20;11.70;99.90
54178;DHT22;40085;53.004;6.770;2022-08-06T04:48:47;11.50;99.90
54178;DHT22;40085;53.004;6.770;2022-08-06T04:51:13;12.20;99.90
54178;DHT22;40085;53.004;6.770;2022-08-06T04:53:43;12.00;99.90
54178;DHT22;40085;53.004;6.770;2022-08-06T04:56:09;12.10;99.90
54178;DHT22;40085;53.004;6.770;2022-08-06T04:58:36;11.90;99.90
54178;DHT22;40085;53.004;6.770;2022-08-06T05:01:02;12.60;99.90
54178;DHT22;40085;53.004;6.770;2022-08-06T05:03:31;12.20;99.90
54178;DHT22;40085;53.004;6.770;2022-08-06T05:06:18;13.20;99.90
54178;DHT22;40085;53.004;6.770;2022-08-06T05:08:47;12.00;99.90
54178;DHT22;40085;53.004;6.770;2022-08-06T05:11:28;11.00;99.90
54178;DHT22;40085;53.004;6.770;2022-08-06T05:13:58;12.10;99.90
54178;DHT22;40085;53.004;6.770;2022-08-06T05:16:25;12.50;99.90
54178;DHT22;40085;53.004;6.770;2022-08-06T05:19:00;13.30;99.90
54178;DHT22;40085;53.004;6.770;2022-08-06T05:21:33;12.40;99.90
54178;DHT22;40085;53.004;6.770;2022-08-06T05:24:12;12.40;99.90
54178;DHT22;40085;53.004;6.770;2022-08-06T05:26:43;12.30;99.90
54178;DHT22;40085;53.004;6.770;2022-08-06T05:29:22;12.40;99.90
54178;DHT22;40085;53.004;6.770;2022-08-06T05:31:57;12.90;99.90
54178;DHT22;40085;53.004;6.770;2022-08-06T05:34:26;13.10;99.90
54178;DHT22;40085;53.004;6.770;2022-08-06T05:37:02;14.90;99.90
54178;DHT22;40085;53.004;6.770;2022-08-06T05:39:28;13.70;99.90
54178;DHT22;40085;53.004;6.770;2022-08-06T05:41:54;12.90;99.90
54178;DHT22;40085;53.004;6.770;2022-08-06T05:44:20;13.50;99.90
54178;DHT22;40085;53.004;6.770;2022-08-06T05:46:56;13.30;99.90
54178;DHT22;40085;53.004;6.770;2022-08-06T05:49:27;13.50;99.90
54178;DHT22;40085;53.004;6.770;2022-08-06T05:52:02;13.00;99.90
54178;DHT22;40085;53.004;6.770;2022-08-06T05:54:39;13.20;99.90
54178;DHT22;40085;53.004;6.770;2022-08-06T05:57:32;13.10;99.90
54178;DHT22;40085;53.004;6.770;2022-08-06T06:00:15;12.90;99.90
54178;DHT22;40085;53.004;6.770;2022-08-06T06:02:51;13.10;99.90
54178;DHT22;40085;53.004;6.770;2022-08-06T06:05:21;13.20;99.90
54178;DHT22;40085;53.004;6.770;2022-08-06T06:07:48;13.40;99.90
54178;DHT22;40085;53.004;6.770;2022-08-06T06:10:17;11.00;99.90
54178;DHT22;40085;53.004;6.770;2022-08-06T06:13:02;15.20;99.90
54178;DHT22;40085;53.004;6.770;2022-08-06T06:23:51;14.40;99.90
54178;DHT22;40085;53.004;6.770;2022-08-06T06:30:02;14.30;99.90
54178;DHT22;40085;53.004;6.770;2022-08-06T06:35:30;13.00;99.90
54178;DHT22;40085;53.004;6.770;2022-08-06T06:41:26;15.40;99.90
54178;DHT22;40085;53.004;6.770;2022-08-06T06:44:18;15.70;99.90
54178;DHT22;40085;53.004;6.770;2022-08-06T06:46:54;14.90;99.90
54178;DHT22;40085;53.004;6.770;2022-08-06T06:49:40;16.20;99.90
54178;DHT22;40085;53.004;6.770;2022-08-06T06:54:48;16.00;99.90
54178;DHT22;40085;53.004;6.770;2022-08-06T06:57:21;16.20;99.90
54178;DHT22;40085;53.004;6.770;2022-08-06T06:59:54;14.40;99.90
54178;DHT22;40085;53.004;6.770;2022-08-06T07:02:25;15.90;99.90
54178;DHT22;40085;53.004;6.770;2022-08-06T07:04:54;17.30;99.90
54178;DHT22;40085;53.004;6.770;2022-08-06T07:07:21;17.00;99.90
54178;DHT22;40085;53.004;6.770;2022-08-06T07:09:50;17.00;99.90
54178;DHT22;40085;53.004;6.770;2022-08-06T07:12:21;16.40;99.90
54178;DHT22;40085;53.004;6.770;2022-08-06T07:14:50;17.60;99.90
54178;DHT22;40085;53.004;6.770;2022-08-06T07:17:19;17.60;99.90
54178;DHT22;40085;53.004;6.770;2022-08-06T07:19:47;17.50;99.90
54178;DHT22;40085;53.004;6.770;2022-08-06T07:22:14;17.50;99.90
54178;DHT22;40085;53.004;6.770;2022-08-06T07:24:41;17.80;99.90
54178;DHT22;40085;53.004;6.770;2022-08-06T07:27:08;16.30;99.90
54178;DHT22;40085;53.004;6.770;2022-08-06T07:29:35;17.80;99.90
54178;DHT22;40085;53.004;6.770;2022-08-06T07:32:07;18.10;99.90
54178;DHT22;40085;53.004;6.770;2022-08-06T07:34:35;15.80;99.90
54178;DHT22;40085;53.004;6.770;2022-08-06T07:37:04;17.90;99.90
54178;DHT22;40085;53.004;6.770;2022-08-06T07:39:37;18.00;99.90
54178;DHT22;40085;53.004;6.770;2022-08-06T07:42:12;18.70;99.90
54178;DHT22;40085;53.004;6.770;2022-08-06T07:44:43;18.30;99.90
54178;DHT22;40085;53.004;6.770;2022-08-06T07:47:15;18.80;99.90
54178;DHT22;40085;53.004;6.770;2022-08-06T07:49:43;18.60;99.90
54178;DHT22;40085;53.004;6.770;2022-08-06T07:52:18;16.60;99.90
54178;DHT22;40085;53.004;6.770;2022-08-06T07:54:46;18.40;99.90
54178;DHT22;40085;53.004;6.770;2022-08-06T07:57:12;18.80;99.90
54178;DHT22;40085;53.004;6.770;2022-08-06T07:59:40;18.60;99.90
54178;DHT22;40085;53.004;6.770;2022-08-06T08:02:10;18.70;99.90
54178;DHT22;40085;53.004;6.770;2022-08-06T08:04:37;19.40;99.90
54178;DHT22;40085;53.004;6.770;2022-08-06T08:07:24;18.40;99.90
54178;DHT22;40085;53.004;6.770;2022-08-06T08:09:51;18.40;99.90
54178;DHT22;40085;53.004;6.770;2022-08-06T08:12:18;19.30;99.90
54178;DHT22;40085;53.004;6.770;2022-08-06T08:14:48;18.50;99.90
54178;DHT22;40085;53.004;6.770;2022-08-06T08:17:15;17.40;99.90
54178;DHT22;40085;53.004;6.770;2022-08-06T08:19:41;19.30;99.90
54178;DHT22;40085;53.004;6.770;2022-08-06T08:22:12;17.50;99.90
54178;DHT22;40085;53.004;6.770;2022-08-06T08:24:39;19.30;99.90
54178;DHT22;40085;53.004;6.770;2022-08-06T08:27:06;19.10;99.90
54178;DHT22;40085;53.004;6.770;2022-08-06T08:29:36;19.50;99.90
54178;DHT22;40085;53.004;6.770;2022-08-06T08:32:04;19.60;99.90
54178;DHT22;40085;53.004;6.770;2022-08-06T08:34:30;17.20;99.90
54178;DHT22;40085;53.004;6.770;2022-08-06T08:36:57;19.40;99.90
54178;DHT22;40085;53.004;6.770;2022-08-06T08:39:22;19.30;99.90
54178;DHT22;40085;53.004;6.770;2022-08-06T08:42:08;19.80;99.90
54178;DHT22;40085;53.004;6.770;2022-08-06T08:47:29;19.60;99.90
54178;DHT22;40085;53.004;6.770;2022-08-06T08:49:59;19.90;99.90
54178;DHT22;40085;53.004;6.770;2022-08-06T08:52:30;18.10;99.90
54178;DHT22;40085;53.004;6.770;2022-08-06T08:55:01;20.20;99.90
54178;DHT22;40085;53.004;6.770;2022-08-06T08:57:27;20.30;99.90
54178;DHT22;40085;53.004;6.770;2022-08-06T08:59:57;19.80;99.90
54178;DHT22;40085;53.004;6.770;2022-08-06T09:02:43;17.50;99.90
54178;DHT22;40085;53.004;6.770;2022-08-06T09:05:10;19.40;99.90
54178;DHT22;40085;53.004;6.770;2022-08-06T09:07:41;19.40;99.90
54178;DHT22;40085;53.004;6.770;2022-08-06T09:10:08;19.10;99.90
54178;DHT22;40085;53.004;6.770;2022-08-06T09:12:34;19.00;99.90
54178;DHT22;40085;53.004;6.770;2022-08-06T09:15:01;17.40;99.90
54178;DHT22;40085;53.004;6.770;2022-08-06T09:17:29;19.20;99.90
54178;DHT22;40085;53.004;6.770;2022-08-06T09:19:57;18.50;99.90
54178;DHT22;40085;53.004;6.770;2022-08-06T09:22:33;18.90;99.90
54178;DHT22;40085;53.004;6.770;2022-08-06T09:24:59;18.60;99.90
54178;DHT22;40085;53.004;6.770;2022-08-06T09:27:33;18.40;99.90
54178;DHT22;40085;53.004;6.770;2022-08-06T09:30:02;18.70;99.90
54178;DHT22;40085;53.004;6.770;2022-08-06T09:32:41;18.50;99.90
54178;DHT22;40085;53.004;6.770;2022-08-06T09:35:28;17.90;99.90
54178;DHT22;40085;53.004;6.770;2022-08-06T09:38:03;19.10;99.90
54178;DHT22;40085;53.004;6.770;2022-08-06T09:40:30;19.70;99.90
54178;DHT22;40085;53.004;6.770;2022-08-06T09:43:29;19.90;99.90
54178;DHT22;40085;53.004;6.770;2022-08-06T09:45:55;21.30;99.90
54178;DHT22;40085;53.004;6.770;2022-08-06T09:48:21;20.50;99.90
54178;DHT22;40085;53.004;6.770;2022-08-06T09:50:49;21.10;99.90
54178;DHT22;40085;53.004;6.770;2022-08-06T09:53:15;21.00;99.90
54178;DHT22;40085;53.004;6.770;2022-08-06T09:55:44;20.70;99.90
54178;DHT22;40085;53.004;6.770;2022-08-06T09:58:10;20.60;99.90
54178;DHT22;40085;53.004;6.770;2022-08-06T10:00:40;17.00;99.90
54178;DHT22;40085;53.004;6.770;2022-08-06T10:03:08;22.50;99.90
54178;DHT22;40085;53.004;6.770;2022-08-06T10:05:34;19.50;99.90
54178;DHT22;40085;53.004;6.770;2022-08-06T10:08:08;19.70;99.90
54178;DHT22;40085;53.004;6.770;2022-08-06T10:10:48;19.30;99.90
54178;DHT22;40085;53.004;6.770;2022-08-06T10:13:25;18.20;99.90
54178;DHT22;40085;53.004;6.770;2022-08-06T10:15:57;19.40;99.90
54178;DHT22;40085;53.004;6.770;2022-08-06T10:18:40;19.30;99.90
54178;DHT22;40085;53.004;6.770;2022-08-06T10:21:14;19.40;99.90
54178;DHT22;40085;53.004;6.770;2022-08-06T10:23:42;19.30;99.90
54178;DHT22;40085;53.004;6.770;2022-08-06T10:26:11;19.50;99.90
54178;DHT22;40085;53.004;6.770;2022-08-06T10:28:43;19.70;99.90
54178;DHT22;40085;53.004;6.770;2022-08-06T10:31:13;20.10;99.90
54178;DHT22;40085;53.004;6.770;2022-08-06T10:36:16;19.90;99.90
54178;DHT22;40085;53.004;6.770;2022-08-06T10:38:50;20.80;99.90
54178;DHT22;40085;53.004;6.770;2022-08-06T10:41:18;20.00;99.90
54178;DHT22;40085;53.004;6.770;2022-08-06T10:43:47;20.40;99.90
54178;DHT22;40085;53.004;6.770;2022-08-06T10:46:14;18.50;99.90
54178;DHT22;40085;53.004;6.770;2022-08-06T10:48:44;19.70;99.90
54178;DHT22;40085;53.004;6.770;2022-08-06T10:51:12;19.80;99.90
54178;DHT22;40085;53.004;6.770;2022-08-06T10:53:40;19.60;99.90
54178;DHT22;40085;53.004;6.770;2022-08-06T10:56:08;20.30;99.90
54178;DHT22;40085;53.004;6.770;2022-08-06T10:58:35;19.80;99.90
54178;DHT22;40085;53.004;6.770;2022-08-06T11:01:21;19.80;99.90
54178;DHT22;40085;53.004;6.770;2022-08-06T11:12:45;20.70;99.90
54178;DHT22;40085;53.004;6.770;2022-08-06T11:15:15;21.10;99.90
54178;DHT22;40085;53.004;6.770;2022-08-06T11:17:46;20.60;99.90
54178;DHT22;40085;53.004;6.770;2022-08-06T11:23:04;20.60;99.90
54178;DHT22;40085;53.004;6.770;2022-08-06T11:25:43;20.40;99.90
54178;DHT22;40085;53.004;6.770;2022-08-06T11:28:19;20.70;99.90
54178;DHT22;40085;53.004;6.770;2022-08-06T11:30:53;20.50;99.90
54178;DHT22;40085;53.004;6.770;2022-08-06T11:33:22;20.70;99.90
54178;DHT22;40085;53.004;6.770;2022-08-06T11:36:08;20.60;99.90
54178;DHT22;40085;53.004;6.770;2022-08-06T11:46:29;21.20;99.90
54178;DHT22;40085;53.004;6.770;2022-08-06T11:51:59;20.50;99.90
54178;DHT22;40085;53.004;6.770;2022-08-06T12:02:12;20.90;99.90
54178;DHT22;40085;53.004;6.770;2022-08-06T12:04:42;19.60;99.90
54178;DHT22;40085;53.004;6.770;2022-08-06T12:07:21;21.50;99.90
54178;DHT22;40085;53.004;6.770;2022-08-06T12:15:35;21.10;99.90
54178;DHT22;40085;53.004;6.770;2022-08-06T12:17:59;21.30;99.90
54178;DHT22;40085;53.004;6.770;2022-08-06T12:23:10;21.60;99.90
54178;DHT22;40085;53.004;6.770;2022-08-06T12:25:39;21.30;99.90
54178;DHT22;40085;53.004;6.770;2022-08-06T12:28:07;21.30;99.40
54178;DHT22;40085;53.004;6.770;2022-08-06T12:30:47;22.00;99.90
54178;DHT22;40085;53.004;6.770;2022-08-06T12:33:18;21.20;99.60
54178;DHT22;40085;53.004;6.770;2022-08-06T12:35:58;21.50;99.90
54178;DHT22;40085;53.004;6.770;2022-08-06T12:38:27;18.50;99.00
54178;DHT22;40085;53.004;6.770;2022-08-06T12:41:03;21.70;99.90
54178;DHT22;40085;53.004;6.770;2022-08-06T12:43:31;21.40;99.50
54178;DHT22;40085;53.004;6.770;2022-08-06T12:46:05;21.50;99.90
54178;DHT22;40085;53.004;6.770;2022-08-06T12:48:33;20.70;99.90
54178;DHT22;40085;53.004;6.770;2022-08-06T12:51:08;20.80;99.70
54178;DHT22;40085;53.004;6.770;2022-08-06T12:53:41;19.80;99.20
54178;DHT22;40085;53.004;6.770;2022-08-06T12:56:10;21.10;99.50
54178;DHT22;40085;53.004;6.770;2022-08-06T12:58:40;21.00;99.90
54178;DHT22;40085;53.004;6.770;2022-08-06T13:01:33;21.00;98.50
54178;DHT22;40085;53.004;6.770;2022-08-06T13:04:06;21.30;99.50
54178;DHT22;40085;53.004;6.770;2022-08-06T13:06:38;21.20;99.80
54178;DHT22;40085;53.004;6.770;2022-08-06T13:09:06;21.20;99.90
54178;DHT22;40085;53.004;6.770;2022-08-06T13:11:33;21.30;99.60
54178;DHT22;40085;53.004;6.770;2022-08-06T13:14:07;21.60;99.20
54178;DHT22;40085;53.004;6.770;2022-08-06T13:16:44;21.60;98.20
54178;DHT22;40085;53.004;6.770;2022-08-06T13:19:15;21.80;98.30
54178;DHT22;40085;53.004;6.770;2022-08-06T13:22:01;24.00;96.60
54178;DHT22;40085;53.004;6.770;2022-08-06T13:24:27;19.40;97.80
54178;DHT22;40085;53.004;6.770;2022-08-06T13:26:54;22.70;97.90
54178;DHT22;40085;53.004;6.770;2022-08-06T13:29:25;22.20;97.20
54178;DHT22;40085;53.004;6.770;2022-08-06T13:32:06;22.70;97.50
54178;DHT22;40085;53.004;6.770;2022-08-06T13:34:54;22.50;95.00
54178;DHT22;40085;53.004;6.770;2022-08-06T13:37:48;21.00;96.70
54178;DHT22;40085;53.004;6.770;2022-08-06T13:40:15;23.20;96.90
54178;DHT22;40085;53.004;6.770;2022-08-06T13:42:55;23.10;97.20
54178;DHT22;40085;53.004;6.770;2022-08-06T13:45:29;22.60;97.00
54178;DHT22;40085;53.004;6.770;2022-08-06T13:48:08;22.70;96.70
54178;DHT22;40085;53.004;6.770;2022-08-06T13:50:42;22.90;96.70
54178;DHT22;40085;53.004;6.770;2022-08-06T13:53:09;22.90;97.00
54178;DHT22;40085;53.004;6.770;2022-08-06T13:55:36;23.40;96.40
54178;DHT22;40085;53.004;6.770;2022-08-06T13:58:03;22.60;96.50
54178;DHT22;40085;53.004;6.770;2022-08-06T14:00:30;22.80;96.80
54178;DHT22;40085;53.004;6.770;2022-08-06T14:02:59;22.60;97.70
54178;DHT22;40085;53.004;6.770;2022-08-06T14:05:24;23.50;97.00
54178;DHT22;40085;53.004;6.770;2022-08-06T14:07:53;23.40;98.70
54178;DHT22;40085;53.004;6.770;2022-08-06T14:10:22;19.80;96.80
54178;DHT22;40085;53.004;6.770;2022-08-06T14:12:47;23.30;97.20
54178;DHT22;40085;53.004;6.770;2022-08-06T14:15:40;24.70;97.50
54178;DHT22;40085;53.004;6.770;2022-08-06T14:18:06;25.30;96.00
54178;DHT22;40085;53.004;6.770;2022-08-06T14:20:32;23.70;96.90
54178;DHT22;40085;53.004;6.770;2022-08-06T14:22:58;22.60;95.70
54178;DHT22;40085;53.004;6.770;2022-08-06T14:25:24;22.40;96.10
54178;DHT22;40085;53.004;6.770;2022-08-06T14:27:51;22.10;94.50
54178;DHT22;40085;53.004;6.770;2022-08-06T14:30:21;22.50;95.50
54178;DHT22;40085;53.004;6.770;2022-08-06T14:32:47;20.40;94.50
54178;DHT22;40085;53.004;6.770;2022-08-06T14:35:14;21.00;96.00
54178;DHT22;40085;53.004;6.770;2022-08-06T14:37:43;22.90;95.50
54178;DHT22;40085;53.004;6.770;2022-08-06T14:40:21;21.50;95.40
54178;DHT22;40085;53.004;6.770;2022-08-06T14:43:07;22.50;94.70
54178;DHT22;40085;53.004;6.770;2022-08-06T14:46:07;23.20;95.10
54178;DHT22;40085;53.004;6.770;2022-08-06T14:52:08;22.10;93.00
54178;DHT22;40085;53.004;6.770;2022-08-06T14:54:34;23.50;94.70
54178;DHT22;40085;53.004;6.770;2022-08-06T15:02:29;23.30;92.90
54178;DHT22;40085;53.004;6.770;2022-08-06T15:05:10;23.30;94.20
54178;DHT22;40085;53.004;6.770;2022-08-06T15:07:40;20.70;92.30
54178;DHT22;40085;53.004;6.770;2022-08-06T15:10:06;23.40;93.90
54178;DHT22;40085;53.004;6.770;2022-08-06T15:12:41;22.70;94.00
54178;DHT22;40085;53.004;6.770;2022-08-06T15:15:10;22.50;93.80
54178;DHT22;40085;53.004;6.770;2022-08-06T15:17:36;23.80;94.50
54178;DHT22;40085;53.004;6.770;2022-08-06T15:20:09;20.60;93.90
54178;DHT22;40085;53.004;6.770;2022-08-06T15:22:40;22.70;95.20
54178;DHT22;40085;53.004;6.770;2022-08-06T15:25:06;23.20;94.00
54178;DHT22;40085;53.004;6.770;2022-08-06T15:27:42;23.10;94.70
54178;DHT22;40085;53.004;6.770;2022-08-06T15:30:17;22.00;94.30
54178;DHT22;40085;53.004;6.770;2022-08-06T15:32:46;23.30;94.80
54178;DHT22;40085;53.004;6.770;2022-08-06T15:35:13;20.80;92.80
54178;DHT22;40085;53.004;6.770;2022-08-06T15:37:38;22.90;94.10
54178;DHT22;40085;53.004;6.770;2022-08-06T15:40:05;22.80;93.90
54178;DHT22;40085;53.004;6.770;2022-08-06T15:42:31;22.70;93.20
54178;DHT22;40085;53.004;6.770;2022-08-06T15:44:57;22.60;94.60
54178;DHT22;40085;53.004;6.770;2022-08-06T15:47:26;23.00;94.30
54178;DHT22;40085;53.004;6.770;2022-08-06T15:49:51;22.60;94.30
54178;DHT22;40085;53.004;6.770;2022-08-06T15:52:23;21.50;94.40
54178;DHT22;40085;53.004;6.770;2022-08-06T15:54:49;22.10;93.90
54178;DHT22;40085;53.004;6.770;2022-08-06T15:57:18;22.20;93.60
54178;DHT22;40085;53.004;6.770;2022-08-06T15:59:50;20.60;93.80
54178;DHT22;40085;53.004;6.770;2022-08-06T16:02:15;22.60;93.80
54178;DHT22;40085;53.004;6.770;2022-08-06T16:04:41;22.70;94.40
54178;DHT22;40085;53.004;6.770;2022-08-06T16:07:19;22.60;94.40
54178;DHT22;40085;53.004;6.770;2022-08-06T16:09:45;22.60;92.90
54178;DHT22;40085;53.004;6.770;2022-08-06T16:12:14;22.30;94.40
54178;DHT22;40085;53.004;6.770;2022-08-06T16:14:40;22.00;94.30
54178;DHT22;40085;53.004;6.770;2022-08-06T16:17:13;22.00;94.20
54178;DHT22;40085;53.004;6.770;2022-08-06T16:19:48;22.00;94.70
54178;DHT22;40085;53.004;6.770;2022-08-06T16:22:17;22.10;95.10
54178;DHT22;40085;53.004;6.770;2022-08-06T16:24:43;21.00;93.50
54178;DHT22;40085;53.004;6.770;2022-08-06T16:27:09;23.50;93.90
54178;DHT22;40085;53.004;6.770;2022-08-06T16:29:37;23.60;95.00
54178;DHT22;40085;53.004;6.770;2022-08-06T16:32:06;24.30;94.10
54178;DHT22;40085;53.004;6.770;2022-08-06T16:34:45;26.00;92.30
54178;DHT22;40085;53.004;6.770;2022-08-06T16:39:38;26.90;99.90
54178;DHT22;40085;53.004;6.770;2022-08-06T16:42:08;27.90;91.80
54178;DHT22;40085;53.004;6.770;2022-08-06T16:44:35;27.20;90.70
54178;DHT22;40085;53.004;6.770;2022-08-06T16:47:05;26.70;90.60
54178;DHT22;40085;53.004;6.770;2022-08-06T16:49:30;26.90;92.10
54178;DHT22;40085;53.004;6.770;2022-08-06T16:51:56;26.90;92.40
54178;DHT22;40085;53.004;6.770;2022-08-06T16:54:22;26.50;92.30
54178;DHT22;40085;53.004;6.770;2022-08-06T16:56:53;26.00;91.70
54178;DHT22;40085;53.004;6.770;2022-08-06T16:59:29;24.90;93.60
54178;DHT22;40085;53.004;6.770;2022-08-06T17:01:55;24.10;99.90
54178;DHT22;40085;53.004;6.770;2022-08-06T17:04:48;24.70;99.90
54178;DHT22;40085;53.004;6.770;2022-08-06T17:07:16;25.80;99.90
54178;DHT22;40085;53.004;6.770;2022-08-06T17:09:49;25.90;99.90
54178;DHT22;40085;53.004;6.770;2022-08-06T17:12:28;25.00;98.80
54178;DHT22;40085;53.004;6.770;2022-08-06T17:15:12;24.90;99.10